createdAt,value
2022-08-18T00:02:18.314Z,100693.44
2022-08-18T00:04:49.559Z,100688.00
2022-08-18T00:07:20.260Z,100685.19
2022-08-18T00:09:48.747Z,100690.53
2022-08-18T00:12:18.774Z,100688.88
2022-08-18T00:14:47.839Z,100679.50
2022-08-18T00:17:18.672Z,100682.28
2022-08-18T00:19:48.298Z,100672.41
2022-08-18T00:22:19.165Z,100681.06
2022-08-18T00:24:49.511Z,100667.50
2022-08-18T00:27:21.697Z,100663.94
2022-08-18T00:29:50.208Z,100681.22
2022-08-18T00:32:21.619Z,100679.50
2022-08-18T00:34:49.550Z,100682.94
2022-08-18T00:37:17.548Z,100685.41
2022-08-18T00:39:46.061Z,100686.03
2022-08-18T00:42:28.811Z,100676.06
2022-08-18T00:45:01.091Z,100685.28
2022-08-18T00:47:41.443Z,100680.78
2022-08-18T00:50:15.940Z,100684.22
2022-08-18T00:52:47.617Z,100691.28
2022-08-18T00:55:18.108Z,100693.13
2022-08-18T00:57:49.735Z,100695.91
2022-08-18T01:00:18.331Z,100688.50
2022-08-18T01:02:51.367Z,100695.69
2022-08-18T01:05:25.297Z,100694.84
2022-08-18T01:07:53.520Z,100668.13
2022-08-18T01:10:23.787Z,100685.28
2022-08-18T01:12:56.426Z,100679.19
2022-08-18T01:15:29.051Z,100671.31
2022-08-18T01:18:18.570Z,100676.75
2022-08-18T01:21:14.550Z,100670.50
2022-08-18T01:23:44.749Z,100674.81
2022-08-18T01:26:12.192Z,100676.75
2022-08-18T01:28:42.904Z,100674.50
2022-08-18T01:31:13.488Z,100681.47
2022-08-18T01:33:45.190Z,100686.53
2022-08-18T01:36:16.737Z,100689.91
2022-08-18T01:38:48.903Z,100693.34
2022-08-18T01:41:26.926Z,100682.56
2022-08-18T01:43:57.388Z,100674.72
2022-08-18T01:46:26.075Z,100689.31
2022-08-18T01:48:53.986Z,100697.88
2022-08-18T01:51:39.904Z,100690.69
2022-08-18T01:54:13.479Z,100688.13
2022-08-18T01:56:42.495Z,100689.63
2022-08-18T01:59:14.491Z,100698.63
2022-08-18T02:01:50.696Z,100673.97
2022-08-18T02:04:34.937Z,100680.09
2022-08-18T02:07:05.989Z,100674.09
2022-08-18T02:09:37.422Z,100679.34
2022-08-18T02:12:07.167Z,100668.28
2022-08-18T02:14:35.595Z,100660.69
2022-08-18T02:17:07.797Z,100663.25
2022-08-18T02:19:36.709Z,100666.47
2022-08-18T02:22:05.461Z,100655.91
2022-08-18T02:24:33.307Z,100649.78
2022-08-18T02:27:02.965Z,100653.31
2022-08-18T02:29:32.109Z,100649.78
2022-08-18T02:31:59.975Z,100659.94
2022-08-18T02:34:30.029Z,100649.78
2022-08-18T02:36:58.037Z,100656.09
2022-08-18T02:39:26.201Z,100652.56
2022-08-18T02:41:54.110Z,100655.56
2022-08-18T02:44:23.382Z,100658.53
2022-08-18T02:46:53.720Z,100667.16
2022-08-18T02:49:21.659Z,100667.78
2022-08-18T02:51:49.807Z,100664.16
2022-08-18T02:54:17.922Z,100661.56
2022-08-18T02:56:47.024Z,100671.44
2022-08-18T02:59:16.761Z,100669.28
2022-08-18T03:01:48.895Z,100666.38
2022-08-18T03:04:22.977Z,100666.06
2022-08-18T03:06:54.227Z,100650.38
2022-08-18T03:09:22.784Z,100658.13
2022-08-18T03:11:51.077Z,100654.59
2022-08-18T03:14:18.937Z,100655.25
2022-08-18T03:16:53.910Z,100663.59
2022-08-18T03:19:23.330Z,100667.03
2022-08-18T03:21:52.740Z,100671.97
2022-08-18T03:24:22.735Z,100672.28
2022-08-18T03:26:53.110Z,100677.34
2022-08-18T03:29:21.531Z,100668.00
2022-08-18T03:31:51.738Z,100674.00
2022-08-18T03:34:22.000Z,100678.31
2022-08-18T03:36:50.970Z,100677.66
2022-08-18T03:39:22.945Z,100687.41
2022-08-18T03:41:59.902Z,100686.88
2022-08-18T03:44:31.694Z,100678.72
2022-08-18T03:47:03.089Z,100680.66
2022-08-18T03:49:33.646Z,100687.91
2022-08-18T03:52:02.332Z,100678.03
2022-08-18T03:54:33.681Z,100684.09
2022-08-18T03:57:01.577Z,100687.53
2022-08-18T03:59:31.806Z,100691.06
2022-08-18T04:02:05.519Z,100695.66
2022-08-18T04:04:33.972Z,100685.81
2022-08-18T04:07:06.653Z,100694.38
2022-08-18T04:09:35.986Z,100696.41
2022-08-18T04:12:16.662Z,100691.16
2022-08-18T04:14:48.266Z,100692.88
2022-08-18T04:17:20.402Z,100684.47
2022-08-18T04:19:48.497Z,100686.66
2022-08-18T04:22:17.084Z,100694.81
2022-08-18T04:24:46.791Z,100702.75
2022-08-18T04:27:14.854Z,100702.09
2022-08-18T04:29:42.928Z,100701.13
2022-08-18T04:32:11.839Z,100700.38
2022-08-18T04:34:41.124Z,100703.06
2022-08-18T04:37:15.489Z,100707.25
2022-08-18T04:39:46.570Z,100717.97
2022-08-18T04:42:48.512Z,100715.81
2022-08-18T04:45:22.215Z,100703.06
2022-08-18T04:48:03.629Z,100710.13
2022-08-18T04:50:36.969Z,100712.59
2022-08-18T04:53:50.771Z,100710.03
2022-08-18T04:56:28.311Z,100710.41
2022-08-18T04:59:08.256Z,100713.34
2022-08-18T05:01:38.682Z,100725.78
2022-08-18T05:04:28.725Z,100727.50
2022-08-18T05:06:58.160Z,100719.56
2022-08-18T05:09:25.994Z,100720.09
2022-08-18T05:11:57.809Z,100719.56
2022-08-18T05:14:27.948Z,100716.53
2022-08-18T05:16:59.672Z,100712.19
2022-08-18T05:19:28.063Z,100706.81
2022-08-18T05:22:00.156Z,100715.91
2022-08-18T05:24:37.188Z,100718.16
2022-08-18T05:27:07.514Z,100717.41
2022-08-18T05:29:37.968Z,100712.25
2022-08-18T05:32:42.500Z,100721.59
2022-08-18T05:35:05.729Z,100720.16
2022-08-18T05:37:44.560Z,100729.59
2022-08-18T05:40:15.411Z,100723.06
2022-08-18T05:42:48.699Z,100717.59
2022-08-18T05:45:20.014Z,100715.97
2022-08-18T05:47:48.307Z,100719.59
2022-08-18T05:50:19.341Z,100718.63
2022-08-18T05:52:55.124Z,100710.56
2022-08-18T05:55:49.935Z,100714.91
2022-08-18T05:58:23.735Z,100713.50
2022-08-18T06:01:05.070Z,100723.22
2022-08-18T06:03:46.350Z,100699.44
2022-08-18T06:06:19.836Z,100707.44
2022-08-18T06:08:57.077Z,100696.59
2022-08-18T06:11:27.526Z,100690.81
2022-08-18T06:13:59.398Z,100691.81
2022-08-18T06:16:44.580Z,100691.25
2022-08-18T06:19:26.731Z,100683.00
2022-08-18T06:22:03.715Z,100695.16
2022-08-18T06:24:39.276Z,100697.69
2022-08-18T06:27:16.187Z,100686.41
2022-08-18T06:29:56.126Z,100674.63
2022-08-18T06:32:36.501Z,100683.38
2022-08-18T06:35:18.169Z,100681.50
2022-08-18T06:38:11.728Z,100691.19
2022-08-18T06:40:41.882Z,100692.22
2022-08-18T06:43:15.822Z,100699.00
2022-08-18T06:45:52.051Z,100696.75
2022-08-18T06:48:26.397Z,100703.97
2022-08-18T06:51:02.716Z,100702.25
2022-08-18T06:53:58.786Z,100698.19
2022-08-18T06:56:36.996Z,100702.25
2022-08-18T06:59:22.995Z,100704.03
2022-08-18T07:01:54.685Z,100704.81
2022-08-18T07:04:43.535Z,100704.47
2022-08-18T07:07:20.529Z,100693.34
2022-08-18T07:09:49.757Z,100678.88
2022-08-18T07:12:27.781Z,100707.81
2022-08-18T07:15:01.272Z,100696.31
2022-08-18T07:17:42.276Z,100710.06
2022-08-18T07:20:20.689Z,100717.44
2022-08-18T07:22:59.649Z,100717.81
2022-08-18T07:25:32.012Z,100717.97
2022-08-18T07:28:02.736Z,100729.97
2022-08-18T07:30:37.027Z,100723.25
2022-08-18T07:33:16.881Z,100717.88
2022-08-18T07:35:49.378Z,100713.81
2022-08-18T07:41:16.020Z,100726.97
2022-08-18T07:43:58.158Z,100745.41
2022-08-18T07:46:35.476Z,100740.56
2022-08-18T07:49:05.490Z,100741.28
2022-08-18T07:51:46.408Z,100759.41
2022-08-18T07:54:48.489Z,100765.88
2022-08-18T07:57:22.473Z,100770.97
2022-08-18T07:59:59.062Z,100784.22
2022-08-18T08:02:38.576Z,100789.06
2022-08-18T08:05:15.065Z,100790.53
2022-08-18T08:07:56.866Z,100793.44
2022-08-18T08:10:33.773Z,100789.38
2022-08-18T08:13:13.578Z,100799.69
2022-08-18T08:15:57.260Z,100805.47
2022-08-18T08:18:37.248Z,100795.63
2022-08-18T08:21:10.869Z,100805.06
2022-08-18T08:23:49.101Z,100816.56
2022-08-18T08:26:37.615Z,100803.22
2022-08-18T08:29:22.906Z,100817.97
2022-08-18T08:31:59.394Z,100818.16
2022-08-18T08:34:34.527Z,100817.19
2022-08-18T08:37:04.053Z,100815.31
2022-08-18T08:39:38.316Z,100819.63
2022-08-18T08:42:29.219Z,100818.84
2022-08-18T08:45:07.580Z,100815.47
2022-08-18T08:47:43.656Z,100811.69
2022-08-18T08:50:14.904Z,100810.88
2022-08-18T08:52:47.325Z,100832.19
2022-08-18T08:55:18.790Z,100853.09
2022-08-18T08:57:51.927Z,100875.06
2022-08-18T09:00:21.437Z,100920.59
2022-08-18T09:03:01.667Z,100995.16
2022-08-18T09:05:31.974Z,101029.69
2022-08-18T09:08:27.847Z,101061.13
2022-08-18T09:11:21.457Z,101063.94
2022-08-18T09:14:24.706Z,101048.28
2022-08-18T09:17:10.131Z,101047.88
2022-08-18T09:19:56.571Z,101077.47
2022-08-18T09:22:38.250Z,101072.94
2022-08-18T09:25:11.754Z,101084.50
2022-08-18T09:28:09.422Z,101062.97
2022-08-18T09:30:55.872Z,101061.72
2022-08-18T09:33:46.886Z,101044.16
2022-08-18T09:36:33.926Z,101046.00
2022-08-18T09:39:37.866Z,101068.31
2022-08-18T09:42:13.429Z,101112.44
2022-08-18T09:45:07.164Z,101116.59
2022-08-18T09:48:01.347Z,101122.69
2022-08-18T09:50:39.413Z,101120.16
2022-08-18T09:53:38.043Z,101104.22
2022-08-18T09:56:08.669Z,101116.50
2022-08-18T09:58:55.236Z,101088.06
2022-08-18T10:01:38.143Z,101076.16
2022-08-18T10:04:32.632Z,101087.66
2022-08-18T10:07:21.303Z,101099.59
2022-08-18T10:10:00.928Z,101109.63
2022-08-18T10:12:37.332Z,101115.03
2022-08-18T10:15:42.195Z,101097.31
2022-08-18T10:18:25.882Z,101128.97
2022-08-18T10:21:10.219Z,101131.59
2022-08-18T10:24:14.649Z,101148.00
2022-08-18T10:27:13.734Z,101142.72
2022-08-18T10:29:54.181Z,101150.31
2022-08-18T10:32:54.233Z,101135.97
2022-08-18T10:35:58.931Z,101141.38
2022-08-18T10:38:49.576Z,101126.91
2022-08-18T10:41:26.522Z,101100.34
2022-08-18T10:44:27.591Z,101092.78
2022-08-18T10:46:53.238Z,101108.09
2022-08-18T10:49:26.271Z,101113.84
2022-08-18T10:52:04.933Z,101114.44
2022-08-18T10:54:51.956Z,101135.25
2022-08-18T10:57:46.916Z,101136.84
2022-08-18T11:00:20.522Z,101139.31
2022-08-18T11:03:42.532Z,101165.50
2022-08-18T11:06:03.067Z,101151.94
2022-08-18T11:08:38.490Z,101159.41
2022-08-18T11:14:09.742Z,101126.03
2022-08-18T11:16:50.785Z,101117.94
2022-08-18T11:19:23.270Z,101111.69
2022-08-18T11:21:53.124Z,101118.59
2022-08-18T11:24:23.196Z,101120.91
2022-08-18T11:26:54.898Z,101123.22
2022-08-18T11:29:34.704Z,101145.63
2022-08-18T11:32:11.362Z,101157.31
2022-08-18T11:34:51.985Z,101199.38
2022-08-18T11:37:28.372Z,101216.66
2022-08-18T11:43:29.559Z,101217.53
2022-08-18T11:46:02.125Z,101263.44
2022-08-18T11:51:34.765Z,99682.03
2022-08-18T11:54:23.502Z,100849.38
2022-08-18T11:56:53.521Z,100972.56
2022-08-18T11:59:55.077Z,100915.69
2022-08-18T12:02:28.147Z,100893.28
2022-08-18T12:05:13.959Z,100836.16
2022-08-18T12:07:57.049Z,100838.72
2022-08-18T12:10:29.756Z,100868.78
2022-08-18T12:13:00.649Z,100813.19
2022-08-18T12:15:46.570Z,100728.94
2022-08-18T12:18:26.210Z,100727.09
2022-08-18T12:23:49.563Z,100645.38
2022-08-18T12:26:37.939Z,100613.25
2022-08-18T12:29:11.092Z,100673.66
2022-08-18T12:31:42.226Z,100629.72
2022-08-18T12:34:17.805Z,100678.34
2022-08-18T12:36:56.228Z,100707.09
2022-08-18T12:39:24.960Z,100757.69
2022-08-18T12:41:53.199Z,100758.47
2022-08-18T12:44:21.133Z,100742.75
2022-08-18T12:46:50.508Z,100744.16
2022-08-18T12:49:22.235Z,100726.03
2022-08-18T12:51:57.667Z,100716.25
2022-08-18T12:54:26.796Z,100755.94
2022-08-18T12:56:57.673Z,100725.28
2022-08-18T12:59:26.327Z,100639.06
2022-08-18T13:02:00.680Z,100609.03
2022-08-18T13:04:28.874Z,100619.88
2022-08-18T13:07:05.745Z,100686.00
2022-08-18T13:09:48.343Z,100759.47
2022-08-18T13:12:23.855Z,100813.81
2022-08-18T13:14:55.015Z,100775.03
2022-08-18T13:17:29.006Z,100773.34
2022-08-18T13:20:03.773Z,100753.78
2022-08-18T13:22:34.550Z,100720.53
2022-08-18T13:25:04.007Z,100738.94
2022-08-18T13:27:35.714Z,100744.75
2022-08-18T13:30:29.553Z,100751.25
2022-08-18T13:32:59.295Z,100740.53
2022-08-18T13:35:29.933Z,100705.13
2022-08-18T13:38:15.682Z,100715.16
2022-08-18T13:40:49.397Z,100739.00
2022-08-18T13:43:18.484Z,100766.56
2022-08-18T13:45:53.358Z,100750.25
2022-08-18T13:48:25.575Z,100768.94
2022-08-18T13:50:55.713Z,100764.47
2022-08-18T13:53:27.308Z,100741.59
2022-08-18T13:55:59.165Z,100677.13
2022-08-18T13:58:28.176Z,100678.88
2022-08-18T14:01:22.821Z,100668.34
2022-08-18T14:03:58.121Z,100673.56
2022-08-18T14:08:59.641Z,100649.25
2022-08-18T14:11:32.796Z,100660.63
2022-08-18T14:14:02.395Z,100639.25
2022-08-18T14:16:31.525Z,100642.00
2022-08-18T14:19:22.828Z,100676.16
2022-08-18T14:22:11.729Z,100750.88
2022-08-18T14:25:02.011Z,100733.47
2022-08-18T14:27:35.072Z,100713.41
2022-08-18T14:30:06.743Z,100715.34
2022-08-18T14:32:36.450Z,100695.03
2022-08-18T14:35:33.882Z,100701.75
2022-08-18T14:38:01.185Z,100725.69
2022-08-18T14:40:33.422Z,100725.97
2022-08-18T14:43:02.690Z,100704.84
2022-08-18T14:45:35.619Z,100696.06
2022-08-18T14:48:07.375Z,100705.56
2022-08-18T14:50:48.916Z,100751.09
2022-08-18T14:53:20.343Z,100741.56
2022-08-18T14:55:52.466Z,100741.72
2022-08-18T14:58:20.988Z,100749.00
2022-08-18T15:00:53.704Z,100728.53
2022-08-18T15:03:28.384Z,100701.38
2022-08-18T15:06:04.652Z,100648.44
2022-08-18T15:08:34.445Z,100681.59
2022-08-18T15:11:11.317Z,100690.09
2022-08-18T15:13:43.568Z,100713.28
2022-08-18T15:16:13.797Z,100681.03
2022-08-18T15:18:41.989Z,100721.63
2022-08-18T15:21:35.773Z,100730.47
2022-08-18T15:24:25.750Z,100702.72
2022-08-18T15:26:58.316Z,100707.47
2022-08-18T15:29:34.816Z,100687.56
2022-08-18T15:32:05.790Z,100692.03
2022-08-18T15:34:47.288Z,100672.47
2022-08-18T15:37:24.301Z,100718.56
2022-08-18T15:40:05.660Z,100681.25
2022-08-18T15:42:35.372Z,100660.31
2022-08-18T15:45:11.779Z,100673.78
2022-08-18T15:47:43.224Z,100639.53
2022-08-18T15:50:25.243Z,100638.47
2022-08-18T15:52:59.926Z,100644.66
2022-08-18T15:55:35.870Z,100633.19
2022-08-18T15:58:11.137Z,100634.75
2022-08-18T16:00:43.757Z,100602.03
2022-08-18T16:03:14.451Z,100602.53
2022-08-18T16:05:48.772Z,100595.50
2022-08-18T16:08:20.709Z,100590.28
2022-08-18T16:10:49.636Z,100605.72
2022-08-18T16:13:19.340Z,100625.47
2022-08-18T16:15:49.949Z,100574.34
2022-08-18T16:18:20.334Z,100570.22
2022-08-18T16:20:48.566Z,100565.03
2022-08-18T16:23:22.122Z,100577.75
2022-08-18T16:25:51.006Z,100579.25
2022-08-18T16:28:34.730Z,100558.06
2022-08-18T16:31:04.422Z,100560.66
2022-08-18T16:33:32.691Z,100540.09
2022-08-18T16:36:04.112Z,100551.03
2022-08-18T16:38:32.111Z,100552.66
2022-08-18T16:41:07.002Z,100545.09
2022-08-18T16:43:38.337Z,100570.44
2022-08-18T16:46:12.015Z,100545.09
2022-08-18T16:48:42.345Z,100541.25
2022-08-18T16:51:17.063Z,100530.16
2022-08-18T16:53:47.281Z,100546.38
2022-08-18T16:56:36.764Z,100554.03
2022-08-18T16:59:23.723Z,100530.09
2022-08-18T17:02:17.372Z,100525.56
2022-08-18T17:04:46.472Z,100522.94
2022-08-18T17:07:14.463Z,100527.53
2022-08-18T17:09:42.624Z,100474.81
2022-08-18T17:12:11.195Z,100507.75
2022-08-18T17:14:40.564Z,100511.84
2022-08-18T17:17:08.836Z,100503.34
2022-08-18T17:19:37.544Z,100522.00
2022-08-18T17:22:08.187Z,100506.41
2022-08-18T17:24:37.765Z,100511.88
2022-08-18T17:27:26.059Z,100455.31
2022-08-18T17:30:02.703Z,100515.16
2022-08-18T17:35:10.356Z,100492.38
2022-08-18T17:37:52.207Z,100502.66
2022-08-18T17:40:24.874Z,100482.13
2022-08-18T17:42:59.810Z,100444.31
2022-08-18T17:45:36.054Z,100457.13
2022-08-18T17:48:14.337Z,100501.53
2022-08-18T17:51:04.463Z,100492.84
2022-08-18T17:53:36.340Z,100502.88
2022-08-18T17:56:11.060Z,100481.66
2022-08-18T17:58:44.218Z,100479.19
2022-08-18T18:01:18.129Z,100427.00
2022-08-18T18:03:46.346Z,100545.88
2022-08-18T18:06:29.531Z,100534.47
2022-08-18T18:09:00.219Z,100419.34
2022-08-18T18:11:32.187Z,100319.75
2022-08-18T18:14:02.938Z,100106.69
2022-08-18T18:16:36.012Z,100055.41
2022-08-18T18:19:12.447Z,100015.75
2022-08-18T18:22:00.312Z,99706.34
2022-08-18T18:24:51.181Z,99356.09
2022-08-18T18:27:32.411Z,99276.16
2022-08-18T18:30:06.318Z,99310.84
2022-08-18T18:32:59.583Z,99431.47
2022-08-18T18:35:30.808Z,99757.47
2022-08-18T18:38:06.097Z,100724.56
2022-08-18T18:40:36.890Z,100856.31
2022-08-18T18:43:28.830Z,100734.19
2022-08-18T18:46:25.114Z,100789.84
2022-08-18T18:49:05.166Z,100911.19
2022-08-18T18:51:45.764Z,101121.78
2022-08-18T18:54:33.264Z,101170.34
2022-08-18T18:57:12.153Z,101200.50
2022-08-18T19:02:35.632Z,101199.31
2022-08-18T19:05:18.090Z,101194.19
2022-08-18T19:08:03.571Z,101166.81
2022-08-18T19:10:37.011Z,101160.50
2022-08-18T19:13:32.458Z,101135.78
2022-08-18T19:16:12.759Z,101140.72
2022-08-18T19:18:57.717Z,101092.72
2022-08-18T19:22:03.235Z,101120.25
2022-08-18T19:24:38.717Z,101091.47
2022-08-18T19:27:12.465Z,101093.84
2022-08-18T19:29:44.583Z,101096.94
2022-08-18T19:32:19.615Z,101093.25
2022-08-18T19:34:54.522Z,101081.47
2022-08-18T19:37:32.371Z,101073.28
2022-08-18T19:40:09.373Z,101065.53
2022-08-18T19:42:44.213Z,101053.97
2022-08-18T19:45:25.545Z,101061.72
2022-08-18T19:48:02.039Z,101051.06
2022-08-18T19:50:35.318Z,101046.31
2022-08-18T19:53:32.443Z,101043.34
2022-08-18T19:56:17.782Z,101007.69
2022-08-18T19:59:21.596Z,101003.59
2022-08-18T20:02:02.902Z,100975.19
2022-08-18T20:04:49.183Z,100994.41
2022-08-18T20:07:41.355Z,100961.13
2022-08-18T20:10:40.645Z,100975.94
2022-08-18T20:13:30.473Z,100961.44
2022-08-18T20:16:15.842Z,100966.88
2022-08-18T20:18:47.790Z,100958.66
2022-08-18T20:21:39.794Z,100933.81
2022-08-18T20:24:27.005Z,100921.31
2022-08-18T20:26:56.620Z,100933.25
2022-08-18T20:29:43.619Z,100932.41
2022-08-18T20:32:21.239Z,100911.94
2022-08-18T20:34:52.025Z,100911.94
2022-08-18T20:37:25.643Z,100913.66
2022-08-18T20:39:58.095Z,100895.28
2022-08-18T20:42:57.396Z,100895.50
2022-08-18T20:45:45.851Z,100899.97
2022-08-18T20:48:34.449Z,100878.28
2022-08-18T20:51:14.324Z,100904.69
2022-08-18T20:54:13.426Z,100921.00
2022-08-18T20:56:48.076Z,100891.19
2022-08-18T20:59:22.012Z,100895.31
2022-08-18T21:01:58.413Z,100907.13
2022-08-18T21:04:42.953Z,100922.22
2022-08-18T21:07:18.639Z,100917.78
2022-08-18T21:10:13.466Z,100893.16
2022-08-18T21:12:52.082Z,100895.75
2022-08-18T21:15:24.618Z,100879.91
2022-08-18T21:18:03.919Z,100909.75
2022-08-18T21:20:34.193Z,100911.19
2022-08-18T21:23:06.631Z,100906.91
2022-08-18T21:25:36.525Z,100892.13
2022-08-18T21:28:07.373Z,100899.28
2022-08-18T21:30:38.110Z,100900.94
2022-08-18T21:33:21.309Z,100887.50
2022-08-18T21:35:53.720Z,100912.38
2022-08-18T21:38:29.064Z,100893.34
2022-08-18T21:41:01.952Z,100915.25
2022-08-18T21:43:42.790Z,100893.78
2022-08-18T21:46:28.139Z,100890.72
2022-08-18T21:49:02.550Z,100878.84
2022-08-18T21:51:45.421Z,100885.06
2022-08-18T21:54:17.817Z,100889.44
2022-08-18T21:56:58.791Z,100885.69
2022-08-18T21:59:28.830Z,100903.97
2022-08-18T22:01:58.925Z,100905.72
2022-08-18T22:04:33.789Z,100892.81
2022-08-18T22:07:16.549Z,100897.97
2022-08-18T22:14:00.055Z,100911.66
2022-08-18T22:20:35.914Z,100908.66
2022-08-18T22:23:36.232Z,100893.44
2022-08-18T22:26:12.527Z,100881.44
2022-08-18T22:28:51.005Z,100868.94
2022-08-18T22:31:23.088Z,100904.75
2022-08-18T22:33:54.278Z,100877.91
2022-08-18T22:36:29.297Z,100892.03
2022-08-18T22:38:57.939Z,100882.56
2022-08-18T22:41:30.562Z,100891.25
2022-08-18T22:44:01.066Z,100871.19
2022-08-18T22:46:36.480Z,100887.56
2022-08-18T22:49:05.287Z,100875.78
2022-08-18T22:51:39.806Z,100885.94
2022-08-18T22:54:10.996Z,100907.81
2022-08-18T22:56:53.938Z,100884.91
2022-08-18T22:59:27.284Z,100884.97
2022-08-18T23:01:57.492Z,100883.59
2022-08-18T23:04:26.798Z,100893.16
2022-08-18T23:07:00.643Z,100890.72
2022-08-18T23:09:31.229Z,100863.38
2022-08-18T23:12:02.066Z,100893.69
2022-08-18T23:14:33.051Z,100883.94
2022-08-18T23:17:04.412Z,100875.25
2022-08-18T23:20:08.387Z,100878.31
2022-08-18T23:22:41.643Z,100866.72
2022-08-18T23:25:11.892Z,100877.53
2022-08-18T23:27:41.379Z,100846.09
2022-08-18T23:30:10.747Z,100864.56
2022-08-18T23:32:43.674Z,100866.47
2022-08-18T23:35:12.935Z,100870.84
2022-08-18T23:37:43.362Z,100849.81
2022-08-18T23:40:14.912Z,100859.75
2022-08-18T23:42:44.802Z,100869.91
2022-08-18T23:45:13.060Z,100879.28
2022-08-18T23:47:41.400Z,100872.53
2022-08-18T23:50:10.840Z,100855.41
2022-08-18T23:52:39.558Z,100870.53
2022-08-18T23:55:11.428Z,100885.56
2022-08-18T23:57:39.566Z,100849.06
